Time;durP1;ratioP1;P1;durP2;ratioP2;P2;SDS_P1;SDS_P2;PMS_P1;PMS_P2;Temp;Humidity;BMP_temperature;BMP_pressure;BME280_temperature;BME280_humidity;BME280_pressure;Samples;Min_cycle;Max_cycle;Signal;HPM_P1;HPM_P2
2021/05/26 00:01:25;;;;;;;12.25;6.50;;;8.90;99.90;;;;;;4987588;28;20064;-81
2021/05/26 00:03:52;;;;;;;10.13;5.85;;;8.90;99.90;;;;;;4955581;28;20030;-81
2021/05/26 00:06:18;;;;;;;9.75;4.97;;;8.90;99.90;;;;;;4986877;28;20534;-80
2021/05/26 00:08:43;;;;;;;7.95;4.97;;;8.90;99.90;;;;;;4987437;28;20039;-80
2021/05/26 00:11:14;;;;;;;9.82;4.53;;;8.90;99.90;;;;;;4987297;28;20027;-80
2021/05/26 00:13:41;;;;;;;;;;;8.90;99.90;;;;;;4987798;28;20031;-81
2021/05/26 00:16:06;;;;;;;9.38;4.93;;;8.90;99.90;;;;;;4987110;28;19910;-80
2021/05/26 00:18:33;;;;;;;9.25;4.70;;;8.90;99.90;;;;;;4987210;28;20031;-80
2021/05/26 00:21:00;;;;;;;9.98;4.82;;;9.00;99.90;;;;;;4988247;28;20031;-80
2021/05/26 00:23:26;;;;;;;7.38;3.10;;;9.00;99.90;;;;;;4987152;28;20038;-80
2021/05/26 00:25:52;;;;;;;6.93;3.17;;;9.10;99.90;;;;;;4987021;28;20090;-80
2021/05/26 00:28:18;;;;;;;5.85;1.77;;;9.10;99.90;;;;;;4970699;28;20046;-81
2021/05/26 00:30:55;;;;;;;7.97;1.95;;;9.10;99.90;;;;;;4954994;28;20141;-78
2021/05/26 00:33:21;;;;;;;3.30;1.08;;;9.00;99.90;;;;;;4988232;28;20113;-80
2021/05/26 00:35:47;;;;;;;3.65;0.77;;;9.00;99.90;;;;;;4987911;28;20086;-80
2021/05/26 00:38:14;;;;;;;3.38;0.75;;;9.00;99.90;;;;;;4986576;28;20036;-79
2021/05/26 00:40:40;;;;;;;3.53;0.70;;;8.90;99.90;;;;;;4988059;28;20121;-80
2021/05/26 00:43:07;;;;;;;1.63;0.40;;;8.80;99.90;;;;;;4970840;28;20038;-81
2021/05/26 00:45:33;;;;;;;1.48;0.30;;;8.80;99.90;;;;;;4986814;28;20047;-81
2021/05/26 00:48:00;;;;;;;1.27;0.30;;;8.80;99.90;;;;;;4986381;28;20138;-80
2021/05/26 00:50:28;;;;;;;1.77;0.40;;;8.80;99.90;;;;;;4986452;28;20055;-80
2021/05/26 00:52:58;;;;;;;1.83;0.40;;;8.70;99.90;;;;;;4987833;28;20062;-80
2021/05/26 00:55:23;;;;;;;2.13;0.45;;;8.70;99.90;;;;;;4986680;28;20062;-80
2021/05/26 00:57:50;;;;;;;1.95;0.40;;;8.70;99.90;;;;;;4986318;28;20030;-80
2021/05/26 01:00:22;;;;;;;3.15;0.30;;;8.70;99.90;;;;;;4970132;28;20053;-81
2021/05/26 01:02:52;;;;;;;2.22;0.40;;;8.70;99.90;;;;;;4970262;28;20031;-80
2021/05/26 01:05:44;;;;;;;1.20;0.40;;;8.60;99.90;;;;;;4970328;28;20027;-81
2021/05/26 01:08:11;;;;;;;2.15;0.40;;;8.60;99.90;;;;;;4946401;29;20103;-81
2021/05/26 01:10:37;;;;;;;1.20;0.30;;;8.60;99.90;;;;;;4930773;29;20047;-80
2021/05/26 01:13:06;;;;;;;2.20;0.30;;;8.60;99.90;;;;;;4930572;29;20546;-79
2021/05/26 01:15:32;;;;;;;2.08;0.30;;;8.60;99.90;;;;;;4930733;29;20106;-81
2021/05/26 01:18:43;;;;;;;0.90;0.20;;;8.60;99.90;;;;;;4930421;29;20038;-81
2021/05/26 01:21:13;;;;;;;2.60;0.20;;;8.60;99.90;;;;;;4929213;29;20541;-81
2021/05/26 01:23:41;;;;;;;0.32;0.13;;;8.60;99.90;;;;;;4930622;29;20035;-82
2021/05/26 01:26:11;;;;;;;1.58;0.30;;;8.60;99.90;;;;;;4930354;29;20055;-82
2021/05/26 01:28:39;;;;;;;2.40;0.30;;;8.60;99.90;;;;;;4930644;29;20080;-83
2021/05/26 01:31:09;;;;;;;0.85;0.20;;;8.60;99.90;;;;;;4930464;29;20031;-84
2021/05/26 01:33:36;;;;;;;1.65;0.17;;;8.50;99.90;;;;;;4914708;29;20039;-83
2021/05/26 01:36:24;;;;;;;2.28;0.40;;;8.50;99.90;;;;;;4946017;29;20036;-82
2021/05/26 01:38:50;;;;;;;1.60;0.28;;;8.50;99.90;;;;;;4930410;29;20050;-82
2021/05/26 01:41:17;;;;;;;2.00;0.30;;;8.50;99.90;;;;;;4946164;29;20051;-81
2021/05/26 01:43:44;;;;;;;1.33;0.30;;;8.50;99.90;;;;;;4945990;29;20043;-82
2021/05/26 01:46:10;;;;;;;1.13;0.40;;;8.40;99.90;;;;;;4982529;28;20062;-82
2021/05/26 01:48:35;;;;;;;1.00;0.30;;;8.40;99.90;;;;;;4969307;28;20051;-82
2021/05/26 01:51:02;;;;;;;1.92;0.35;;;8.40;99.90;;;;;;4969590;28;20030;-83
2021/05/26 01:53:29;;;;;;;1.20;0.40;;;8.40;99.90;;;;;;4985321;28;20031;-83
2021/05/26 01:55:55;;;;;;;1.50;0.40;;;8.40;99.90;;;;;;4985579;28;20117;-82
2021/05/26 01:58:21;;;;;;;2.05;0.57;;;8.40;99.90;;;;;;4986688;28;20066;-83
2021/05/26 02:00:49;;;;;;;1.52;0.40;;;8.40;99.90;;;;;;4969316;28;20031;-81
2021/05/26 02:03:15;;;;;;;2.28;0.40;;;8.30;99.90;;;;;;4985512;28;20033;-80
2021/05/26 02:05:42;;;;;;;3.58;0.50;;;8.30;99.90;;;;;;4969099;28;20518;-82
2021/05/26 02:08:08;;;;;;;2.45;0.40;;;8.30;99.90;;;;;;4969182;28;20031;-81
2021/05/26 02:13:18;;;;;;;2.90;0.60;;;8.40;99.90;;;;;;4984832;28;20097;-81
2021/05/26 02:15:49;;;;;;;1.98;0.47;;;8.40;99.90;;;;;;4970316;28;20034;-82
2021/05/26 02:18:15;;;;;;;1.27;0.40;;;8.40;99.90;;;;;;4985222;28;20469;-82
2021/05/26 02:20:41;;;;;;;1.85;0.50;;;8.40;99.90;;;;;;4985399;28;20038;-82
2021/05/26 02:23:06;;;;;;;1.65;0.50;;;8.40;99.90;;;;;;4969272;28;20058;-82
2021/05/26 02:25:32;;;;;;;1.30;0.43;;;8.50;99.90;;;;;;4985365;28;20047;-82
2021/05/26 02:28:00;;;;;;;0.85;0.32;;;8.50;99.90;;;;;;4986509;28;20026;-81
2021/05/26 02:30:26;;;;;;;2.22;0.50;;;8.60;99.90;;;;;;4969310;28;20033;-81
2021/05/26 02:32:51;;;;;;;1.63;0.40;;;8.60;99.90;;;;;;4969175;28;20071;-81
2021/05/26 02:35:17;;;;;;;2.38;0.40;;;8.60;99.90;;;;;;4985215;28;20026;-81
2021/05/26 02:37:44;;;;;;;2.60;0.50;;;8.60;99.90;;;;;;4952996;28;20034;-81
2021/05/26 02:40:10;;;;;;;2.03;0.57;;;8.60;99.90;;;;;;4985176;28;20027;-81
2021/05/26 02:42:37;;;;;;;1.73;0.70;;;8.60;99.90;;;;;;4985265;28;20491;-82
2021/05/26 02:45:04;;;;;;;2.58;0.82;;;8.60;99.90;;;;;;4969235;28;20363;-81
2021/05/26 02:47:30;;;;;;;2.60;0.73;;;8.60;99.90;;;;;;4984883;28;20089;-81
2021/05/26 02:49:57;;;;;;;2.85;0.90;;;8.60;99.90;;;;;;4969322;28;20118;-81
2021/05/26 02:52:23;;;;;;;3.00;0.70;;;8.60;99.90;;;;;;4985147;28;20062;-80
2021/05/26 02:54:53;;;;;;;1.60;0.70;;;8.60;99.90;;;;;;4986428;28;20723;-80
2021/05/26 02:57:20;;;;;;;2.42;1.05;;;8.60;99.90;;;;;;4984900;28;20098;-81
2021/05/26 03:00:06;;;;;;;3.38;0.98;;;8.60;99.90;;;;;;4985278;28;20090;-80
2021/05/26 03:02:46;;;;;;;3.40;0.70;;;8.70;99.90;;;;;;4968983;28;20170;-80
2021/05/26 03:05:33;;;;;;;3.30;0.90;;;8.60;99.90;;;;;;4984612;28;20046;-80
2021/05/26 03:07:59;;;;;;;4.25;1.10;;;8.60;99.90;;;;;;4945135;29;20044;-78
2021/05/26 03:10:29;;;;;;;5.00;1.60;;;8.60;99.90;;;;;;4929181;29;20074;-81
2021/05/26 03:13:04;;;;;;;4.78;2.15;;;8.70;99.90;;;;;;4929254;29;20527;-81
2021/05/26 03:15:33;;;;;;;3.83;1.80;;;8.70;99.90;;;;;;4929222;29;20067;-80
2021/05/26 03:18:00;;;;;;;7.05;2.08;;;8.70;99.90;;;;;;4944966;29;20055;-80
2021/05/26 03:20:26;;;;;;;4.68;1.98;;;8.70;99.90;;;;;;4929077;29;20103;-80
2021/05/26 03:23:10;;;;;;;5.07;1.75;;;8.70;99.90;;;;;;4945792;29;20041;-81
2021/05/26 03:25:59;;;;;;;5.53;2.88;;;8.70;99.90;;;;;;4947915;29;20091;-81
2021/05/26 03:28:24;;;;;;;4.97;2.88;;;8.80;99.90;;;;;;4916929;29;20031;-81
2021/05/26 03:30:50;;;;;;;5.00;3.15;;;8.80;99.90;;;;;;4916653;29;20120;-80
2021/05/26 03:33:16;;;;;;;7.18;4.38;;;8.80;99.90;;;;;;4948356;29;20039;-82
2021/05/26 03:35:43;;;;;;;9.02;6.25;;;8.80;99.90;;;;;;4948050;29;20028;-81
2021/05/26 03:38:10;;;;;;;10.55;5.85;;;8.90;99.90;;;;;;4932354;29;20040;-80
2021/05/26 03:40:49;;;;;;;14.38;6.82;;;8.90;99.90;;;;;;4933954;29;20036;-81
2021/05/26 03:43:16;;;;;;;10.15;5.57;;;8.90;99.90;;;;;;4948121;29;20028;-82
2021/05/26 03:45:42;;;;;;;13.50;8.38;;;8.90;99.90;;;;;;4962465;28;20138;-81
2021/05/26 03:48:11;;;;;;;18.20;7.47;;;8.90;99.90;;;;;;4989425;28;20042;-81
2021/05/26 03:50:37;;;;;;;11.30;7.45;;;9.00;99.90;;;;;;4990928;28;20034;-82
2021/05/26 03:53:05;;;;;;;15.73;7.63;;;9.00;99.90;;;;;;4973733;28;20031;-81
2021/05/26 03:55:32;;;;;;;12.07;5.87;;;9.00;99.90;;;;;;4988285;28;20477;-81
2021/05/26 03:58:17;;;;;;;14.57;7.85;;;9.00;99.90;;;;;;4988680;28;20086;-82
2021/05/26 04:00:44;;;;;;;10.23;7.03;;;9.00;99.90;;;;;;4971862;28;20114;-81
2021/05/26 04:03:17;;;;;;;17.13;10.02;;;9.00;99.90;;;;;;4987828;28;20493;-81
2021/05/26 04:08:12;;;;;;;10.00;7.07;;;8.90;99.90;;;;;;5012822;23;20055;-78
2021/05/26 04:10:38;;;;;;;12.73;6.38;;;8.90;99.90;;;;;;4990848;28;20122;-82
2021/05/26 04:13:19;;;;;;;10.27;6.22;;;9.00;99.90;;;;;;4991025;28;20030;-79
2021/05/26 04:15:54;;;;;;;9.30;5.20;;;9.00;99.90;;;;;;4976085;28;20266;-80
2021/05/26 04:18:46;;;;;;;13.93;6.63;;;9.00;99.90;;;;;;4985317;28;20093;-80
2021/05/26 04:21:11;;;;;;;16.50;7.10;;;9.10;99.90;;;;;;4989916;28;20367;-81
2021/05/26 04:23:37;;;;;;;16.90;7.72;;;9.10;99.90;;;;;;4990617;28;20034;-82
2021/05/26 04:26:03;;;;;;;17.67;7.47;;;9.10;99.90;;;;;;4986446;28;20053;-83
2021/05/26 04:28:29;;;;;;;18.42;7.82;;;9.10;99.90;;;;;;4987326;28;20083;-81
2021/05/26 04:30:55;;;;;;;12.38;5.40;;;9.10;99.90;;;;;;4972449;28;20034;-80
2021/05/26 04:33:26;;;;;;;16.17;5.18;;;9.10;99.90;;;;;;4988489;28;20038;-81
2021/05/26 04:35:52;;;;;;;14.43;4.30;;;9.10;99.90;;;;;;5005597;28;20476;-80
2021/05/26 04:38:18;;;;;;;13.57;4.28;;;9.20;99.90;;;;;;4986775;28;20034;-82
2021/05/26 04:40:46;;;;;;;9.27;4.00;;;9.20;99.90;;;;;;4989200;28;20034;-81
2021/05/26 04:43:12;;;;;;;10.85;4.40;;;9.20;99.90;;;;;;4989678;28;20034;-81
2021/05/26 04:45:37;;;;;;;8.60;3.97;;;9.30;99.90;;;;;;5006819;28;20095;-81
2021/05/26 04:48:03;;;;;;;14.43;4.35;;;9.30;99.90;;;;;;5005414;28;20038;-81
2021/05/26 04:50:30;;;;;;;13.35;4.45;;;9.30;99.90;;;;;;4989303;28;20502;-80
2021/05/26 04:52:56;;;;;;;10.02;3.03;;;9.30;99.90;;;;;;4988725;28;20125;-81
2021/05/26 04:55:21;;;;;;;11.73;3.00;;;9.30;99.90;;;;;;4989203;28;20037;-82
2021/05/26 04:57:57;;;;;;;9.48;2.70;;;9.30;99.90;;;;;;4988888;28;20038;-81
2021/05/26 05:00:26;;;;;;;9.35;3.15;;;9.40;99.90;;;;;;4976384;23;20098;-81
2021/05/26 05:02:51;;;;;;;9.20;2.40;;;9.40;99.90;;;;;;4969289;23;20392;-80
2021/05/26 05:05:37;;;;;;;5.75;2.78;;;9.50;99.90;;;;;;4962998;29;20032;-78
2021/05/26 05:08:05;;;;;;;8.38;2.45;;;9.50;99.90;;;;;;4910472;29;20048;-80
2021/05/26 05:10:31;;;;;;;8.13;2.67;;;9.50;99.90;;;;;;4926735;29;20039;-81
2021/05/26 05:12:57;;;;;;;9.48;2.15;;;9.50;99.90;;;;;;4926941;29;20040;-81
2021/05/26 05:15:23;;;;;;;5.97;1.55;;;9.50;99.90;;;;;;4926752;29;20032;-81
2021/05/26 05:17:49;;;;;;;6.40;2.17;;;9.60;99.90;;;;;;4926779;29;20172;-81
2021/05/26 05:20:20;;;;;;;8.68;2.45;;;9.60;99.90;;;;;;4926552;29;20068;-81
2021/05/26 05:22:46;;;;;;;;;;;9.50;99.90;;;;;;4926953;29;20447;-80
2021/05/26 05:25:12;;;;;;;8.25;2.25;;;9.60;99.90;;;;;;4910333;29;19983;-78
2021/05/26 05:27:38;;;;;;;7.53;2.22;;;9.60;99.90;;;;;;4926375;29;20508;-78
2021/05/26 05:30:04;;;;;;;5.30;1.67;;;9.70;99.90;;;;;;4910689;29;20032;-81
2021/05/26 05:32:31;;;;;;;9.23;2.40;;;9.80;99.90;;;;;;4910164;29;20044;-81
2021/05/26 05:34:56;;;;;;;7.10;1.60;;;9.80;99.90;;;;;;4910911;29;20043;-81
2021/05/26 05:37:22;;;;;;;8.45;1.88;;;9.80;99.90;;;;;;4910416;29;20028;-81
2021/05/26 05:39:48;;;;;;;8.10;2.10;;;9.90;99.90;;;;;;4910672;29;20634;-81
2021/05/26 05:42:13;;;;;;;7.28;2.05;;;10.10;99.90;;;;;;4910413;29;20032;-81
2021/05/26 05:44:39;;;;;;;7.47;2.50;;;10.30;99.90;;;;;;4935635;29;20047;-82
2021/05/26 05:47:05;;;;;;;5.93;1.77;;;10.30;99.90;;;;;;4961604;28;20039;-82
2021/05/26 05:49:30;;;;;;;6.63;1.73;;;10.30;99.90;;;;;;4963142;29;20020;-82
2021/05/26 05:51:56;;;;;;;11.05;3.65;;;10.30;99.90;;;;;;4946499;29;20028;-82
2021/05/26 05:54:22;;;;;;;10.52;3.10;;;10.10;99.90;;;;;;4946712;29;20032;-82
2021/05/26 05:56:47;;;;;;;6.57;2.83;;;10.10;99.90;;;;;;4925788;29;20262;-82
2021/05/26 05:59:13;;;;;;;7.15;2.88;;;10.00;99.90;;;;;;4962071;29;20035;-81
2021/05/26 06:01:39;;;;;;;8.70;2.88;;;10.10;99.90;;;;;;4945988;29;20044;-81
2021/05/26 06:04:06;;;;;;;10.43;3.92;;;10.20;99.90;;;;;;4962096;29;20032;-81
2021/05/26 06:06:32;;;;;;;10.55;3.53;;;10.20;99.90;;;;;;4961695;29;20102;-81
2021/05/26 06:08:57;;;;;;;6.65;2.75;;;10.20;99.90;;;;;;4962277;29;20031;-82
2021/05/26 06:11:23;;;;;;;8.25;4.03;;;10.40;99.90;;;;;;4946394;29;20070;-80
2021/05/26 06:13:49;;;;;;;10.68;3.38;;;10.30;99.90;;;;;;4947025;29;20028;-81
2021/05/26 06:16:18;;;;;;;8.23;4.00;;;10.40;99.90;;;;;;4961776;29;20031;-81
2021/05/26 06:18:43;;;;;;;12.02;4.75;;;10.30;99.90;;;;;;4946126;29;20035;-81
2021/05/26 06:21:09;;;;;;;7.63;3.83;;;10.40;99.90;;;;;;4962365;29;20103;-81
2021/05/26 06:23:39;;;;;;;11.15;4.45;;;10.70;99.90;;;;;;4945993;29;20127;-81
2021/05/26 06:26:05;;;;;;;14.10;6.78;;;10.60;99.90;;;;;;4930995;29;20047;-81
2021/05/26 06:28:30;;;;;;;14.27;6.72;;;10.50;99.90;;;;;;4942723;29;20112;-78
2021/05/26 06:30:57;;;;;;;6.82;4.25;;;10.50;99.90;;;;;;4927070;29;20120;-78
2021/05/26 06:33:24;;;;;;;10.77;5.40;;;10.60;99.90;;;;;;4959517;29;20468;-78
2021/05/26 06:35:51;;;;;;;11.05;4.53;;;10.80;99.90;;;;;;4961948;29;20079;-79
2021/05/26 06:38:17;;;;;;;9.15;5.05;;;10.90;99.90;;;;;;4947233;29;20032;-79
2021/05/26 06:40:42;;;;;;;12.23;5.45;;;10.80;99.90;;;;;;4961993;29;20052;-79
2021/05/26 06:43:08;;;;;;;11.32;6.00;;;10.70;99.90;;;;;;4961753;29;20053;-78
2021/05/26 06:45:34;;;;;;;17.15;6.22;;;10.50;99.90;;;;;;4946032;29;20027;-80
2021/05/26 06:47:59;;;;;;;9.27;5.20;;;10.30;99.90;;;;;;4961673;29;20060;-81
2021/05/26 06:50:25;;;;;;;13.65;5.35;;;10.50;99.90;;;;;;4961875;29;20059;-81
2021/05/26 06:52:51;;;;;;;7.30;5.32;;;10.50;99.90;;;;;;4947126;29;20023;-81
2021/05/26 06:55:16;;;;;;;9.23;4.38;;;10.60;99.90;;;;;;4947194;29;20067;-80
2021/05/26 06:57:42;;;;;;;6.10;3.78;;;10.70;99.90;;;;;;4945744;29;20028;-80
2021/05/26 07:00:09;;;;;;;12.43;4.78;;;10.80;99.90;;;;;;4949266;29;20084;-81
2021/05/26 07:02:34;;;;;;;7.82;3.90;;;10.80;99.90;;;;;;4965436;29;20124;-81
2021/05/26 07:05:00;;;;;;;11.80;6.10;;;10.80;99.90;;;;;;4965609;29;20055;-81
2021/05/26 07:07:26;;;;;;;7.75;5.75;;;10.60;99.90;;;;;;4965266;29;20050;-78
2021/05/26 07:09:51;;;;;;;9.50;4.28;;;10.80;99.90;;;;;;4965256;29;20082;-78
2021/05/26 07:12:17;;;;;;;12.75;5.43;;;10.90;99.90;;;;;;4965305;29;20035;-78
2021/05/26 07:14:44;;;;;;;8.15;3.78;;;11.00;99.90;;;;;;4965302;29;20034;-78
2021/05/26 07:17:10;;;;;;;9.98;4.70;;;11.20;99.90;;;;;;4965020;29;20036;-78
2021/05/26 07:19:36;;;;;;;8.30;4.82;;;11.30;99.90;;;;;;4965003;29;20040;-78
2021/05/26 07:22:01;;;;;;;11.32;5.18;;;11.60;99.90;;;;;;4965072;29;20139;-78
2021/05/26 07:24:27;;;;;;;13.98;7.15;;;11.90;99.90;;;;;;4964932;29;20078;-79
2021/05/26 07:26:53;;;;;;;10.00;6.22;;;11.70;99.90;;;;;;4964771;29;20073;-78
2021/05/26 07:29:18;;;;;;;8.32;5.47;;;12.10;99.90;;;;;;4964874;29;20067;-78
2021/05/26 07:31:44;;;;;;;11.60;5.50;;;11.80;99.90;;;;;;4950263;28;20042;-78
2021/05/26 07:34:09;;;;;;;8.30;5.03;;;11.90;99.90;;;;;;4949146;29;20114;-78
2021/05/26 07:36:35;;;;;;;11.20;6.88;;;12.00;99.90;;;;;;4948659;29;20094;-78
2021/05/26 07:39:02;;;;;;;12.65;7.03;;;11.60;99.90;;;;;;4965077;29;20619;-78
2021/05/26 07:41:28;;;;;;;10.15;6.15;;;11.80;99.90;;;;;;4948674;29;20039;-78
2021/05/26 07:43:54;;;;;;;10.52;5.03;;;12.20;99.90;;;;;;4948698;29;20032;-78
2021/05/26 07:46:19;;;;;;;7.38;5.22;;;12.40;99.90;;;;;;4948396;29;20043;-78
2021/05/26 07:48:48;;;;;;;6.57;4.18;;;12.30;99.90;;;;;;4950142;29;20020;-77
2021/05/26 07:51:16;;;;;;;8.50;4.88;;;12.20;99.90;;;;;;4964565;29;20036;-77
2021/05/26 07:53:42;;;;;;;7.22;4.30;;;12.00;99.90;;;;;;4964641;29;20508;-78
2021/05/26 07:56:07;;;;;;;11.52;5.32;;;12.00;99.90;;;;;;4948479;29;20035;-77
2021/05/26 07:58:33;;;;;;;7.43;5.07;;;11.90;99.90;;;;;;4964456;29;20028;-78
2021/05/26 08:00:58;;;;;;;8.00;5.05;;;12.20;99.90;;;;;;4948280;29;20036;-78
2021/05/26 08:03:27;;;;;;;9.50;5.13;;;11.90;99.90;;;;;;4963946;29;20047;-78
2021/05/26 08:05:55;;;;;;;7.72;4.90;;;12.10;99.90;;;;;;4963959;29;20043;-78
2021/05/26 08:08:23;;;;;;;10.75;5.25;;;12.00;99.90;;;;;;4964271;29;20024;-78
2021/05/26 08:10:52;;;;;;;8.98;4.93;;;11.90;99.90;;;;;;4963293;28;20043;-78
2021/05/26 08:13:20;;;;;;;9.48;5.35;;;11.90;99.90;;;;;;4949816;29;20036;-80
2021/05/26 08:15:48;;;;;;;9.55;4.65;;;11.70;99.90;;;;;;4964000;29;20039;-81
2021/05/26 08:18:21;;;;;;;11.77;5.32;;;11.90;99.90;;;;;;4948413;29;20040;-79
2021/05/26 08:20:50;;;;;;;10.23;6.45;;;12.00;99.90;;;;;;4949617;29;20058;-81
2021/05/26 08:23:18;;;;;;;9.45;5.85;;;11.90;99.90;;;;;;4964099;29;20095;-80
2021/05/26 08:25:46;;;;;;;9.88;6.38;;;11.90;99.90;;;;;;4949263;29;20186;-80
2021/05/26 08:28:15;;;;;;;7.97;5.10;;;12.00;99.90;;;;;;4949498;29;20110;-80
2021/05/26 08:30:45;;;;;;;9.95;6.75;;;12.20;99.90;;;;;;4949253;29;20054;-81
2021/05/26 08:33:14;;;;;;;11.50;7.43;;;12.10;99.90;;;;;;4948456;29;20074;-81
2021/05/26 08:35:42;;;;;;;10.07;6.50;;;12.10;99.90;;;;;;4963576;29;20067;-80
2021/05/26 08:38:10;;;;;;;10.57;6.40;;;12.30;99.90;;;;;;4963825;29;20035;-81
2021/05/26 08:40:39;;;;;;;8.98;6.13;;;12.60;99.90;;;;;;4949095;29;20110;-78
2021/05/26 08:43:08;;;;;;;11.90;7.30;;;12.70;99.90;;;;;;4948092;29;20043;-79
2021/05/26 08:45:36;;;;;;;9.80;7.18;;;12.70;99.90;;;;;;4948995;29;20440;-80
2021/05/26 08:48:06;;;;;;;8.45;6.65;;;13.20;99.90;;;;;;4963471;29;20031;-80
2021/05/26 08:50:34;;;;;;;14.43;8.52;;;13.30;99.90;;;;;;4963473;29;20054;-80
2021/05/26 08:53:04;;;;;;;12.50;8.40;;;12.80;99.90;;;;;;4947883;29;20036;-80
2021/05/26 08:55:33;;;;;;;13.77;8.63;;;12.70;99.90;;;;;;4963445;29;20036;-80
2021/05/26 08:58:01;;;;;;;9.45;7.05;;;12.60;99.90;;;;;;4963316;29;20099;-80
2021/05/26 09:00:30;;;;;;;10.50;7.80;;;12.80;99.90;;;;;;4947572;29;20114;-78
2021/05/26 09:02:58;;;;;;;9.55;7.00;;;12.50;99.90;;;;;;4962967;29;20043;-78
2021/05/26 09:05:29;;;;;;;12.45;8.27;;;12.70;99.90;;;;;;4962790;29;20063;-77
2021/05/26 09:08:00;;;;;;;11.13;6.85;;;12.70;99.90;;;;;;4948766;29;20047;-78
2021/05/26 09:10:29;;;;;;;15.00;8.35;;;13.30;99.90;;;;;;4962774;29;20035;-78
2021/05/26 09:12:59;;;;;;;11.32;7.40;;;12.90;99.90;;;;;;4962958;29;20385;-77
2021/05/26 09:15:28;;;;;;;10.32;6.50;;;12.70;99.90;;;;;;4948547;29;20039;-77
2021/05/26 09:17:58;;;;;;;12.75;8.30;;;13.10;99.90;;;;;;4962707;29;20114;-78
2021/05/26 09:20:28;;;;;;;11.38;7.97;;;13.30;99.90;;;;;;4948585;29;20036;-78
2021/05/26 09:23:14;;;;;;;7.72;6.15;;;13.40;99.90;;;;;;4962629;28;20479;-78
2021/05/26 09:25:46;;;;;;;7.60;6.88;;;13.40;99.90;;;;;;4954041;29;20393;-80
2021/05/26 09:28:17;;;;;;;10.48;6.93;;;13.20;99.90;;;;;;4962753;29;20548;-80
2021/05/26 09:30:58;;;;;;;6.57;5.97;;;13.20;99.90;;;;;;4962780;29;20059;-77
2021/05/26 09:33:31;;;;;;;8.02;5.50;;;13.60;99.90;;;;;;4962493;29;20032;-77
2021/05/26 09:36:22;;;;;;;10.00;6.60;;;14.10;99.90;;;;;;4962321;29;20032;-78
2021/05/26 09:39:04;;;;;;;7.18;5.75;;;14.50;99.90;;;;;;4948335;29;20036;-78
2021/05/26 09:41:37;;;;;;;11.60;7.43;;;15.00;99.90;;;;;;4948088;29;20036;-78
2021/05/26 09:44:10;;;;;;;9.15;6.22;;;14.00;99.90;;;;;;4947035;29;20055;-78
2021/05/26 09:46:40;;;;;;;14.98;6.97;;;14.20;99.90;;;;;;4947734;29;20048;-78
2021/05/26 09:49:10;;;;;;;;;;;14.30;99.90;;;;;;4948453;29;20056;-78
2021/05/26 09:51:51;;;;;;;5.10;4.30;;;14.40;99.90;;;;;;4947707;29;20336;-78
2021/05/26 09:54:27;;;;;;;6.28;4.18;;;14.90;99.90;;;;;;4962487;29;20039;-78
2021/05/26 09:57:02;;;;;;;9.23;5.15;;;15.00;99.90;;;;;;4947527;29;20039;-78
2021/05/26 09:59:32;;;;;;;10.20;5.13;;;13.90;99.90;;;;;;4962341;29;20031;-78
2021/05/26 10:02:05;;;;;;;5.43;4.20;;;13.70;99.90;;;;;;4953282;29;20130;-77
2021/05/26 10:04:31;;;;;;;7.88;5.78;;;14.50;99.90;;;;;;4949624;29;20031;-78
2021/05/26 10:07:16;;;;;;;7.22;5.10;;;14.40;99.90;;;;;;4965406;29;20058;-77
2021/05/26 10:09:48;;;;;;;4.68;3.42;;;14.40;99.90;;;;;;4949972;29;20037;-78
2021/05/26 10:12:40;;;;;;;5.93;4.00;;;15.20;99.90;;;;;;4966699;29;20074;-77
2021/05/26 10:15:12;;;;;;;4.68;3.75;;;14.80;99.90;;;;;;4949463;29;20023;-78
2021/05/26 10:17:41;;;;;;;6.93;3.00;;;15.30;99.90;;;;;;4966666;29;20042;-77
2021/05/26 10:20:09;;;;;;;4.70;2.50;;;15.30;99.90;;;;;;4966674;29;20058;-78
2021/05/26 10:22:36;;;;;;;5.72;2.70;;;15.30;99.90;;;;;;4966814;29;20023;-78
2021/05/26 10:25:03;;;;;;;7.90;4.45;;;15.60;99.90;;;;;;4961926;29;20082;-78
2021/05/26 10:27:32;;;;;;;4.47;2.63;;;14.20;99.90;;;;;;4949067;29;20531;-78
2021/05/26 10:29:58;;;;;;;5.80;4.00;;;14.50;99.90;;;;;;4949438;29;20377;-78
2021/05/26 10:32:28;;;;;;;10.52;4.20;;;14.00;99.90;;;;;;4966558;28;20031;-78
2021/05/26 10:34:53;;;;;;;9.48;5.20;;;13.60;99.90;;;;;;4969995;29;20035;-77
2021/05/26 10:37:25;;;;;;;5.53;4.75;;;14.50;99.90;;;;;;4970235;29;20038;-77
2021/05/26 10:39:52;;;;;;;10.10;5.70;;;15.40;99.90;;;;;;4969150;29;20035;-77
2021/05/26 10:42:28;;;;;;;8.35;4.82;;;15.30;99.90;;;;;;4953124;29;20041;-78
2021/05/26 10:45:09;;;;;;;7.18;4.60;;;15.40;99.90;;;;;;4969265;29;20038;-78
2021/05/26 10:47:38;;;;;;;6.88;4.13;;;14.50;99.90;;;;;;4952807;29;20125;-78
2021/05/26 10:50:05;;;;;;;6.70;3.50;;;14.20;99.90;;;;;;4969049;29;20027;-78
2021/05/26 10:53:01;;;;;;;6.32;3.95;;;14.80;99.90;;;;;;4968764;29;20173;-78
2021/05/26 10:55:41;;;;;;;7.72;5.03;;;14.80;99.90;;;;;;4969274;29;20100;-81
2021/05/26 10:58:18;;;;;;;6.93;4.85;;;14.60;99.90;;;;;;4970185;29;20476;-80
2021/05/26 11:00:49;;;;;;;3.05;0.63;;;14.00;99.90;;;;;;4952813;29;20035;-80
2021/05/26 11:03:24;;;;;;;2.58;0.30;;;12.90;99.90;;;;;;4968541;29;20047;-80
2021/05/26 11:05:53;;;;;;;2.95;0.30;;;12.10;99.90;;;;;;4968339;29;20109;-80
2021/05/26 11:08:35;;;;;;;1.30;0.30;;;12.20;99.90;;;;;;4968423;29;20095;-80
2021/05/26 11:11:26;;;;;;;1.25;0.20;;;11.80;99.90;;;;;;4968590;29;20032;-80
2021/05/26 11:14:01;;;;;;;1.77;0.20;;;11.70;99.90;;;;;;4968568;29;20046;-80
2021/05/26 11:16:49;;;;;;;1.25;0.30;;;11.80;99.90;;;;;;4968219;29;20102;-80
2021/05/26 11:19:22;;;;;;;1.35;0.30;;;11.80;99.90;;;;;;4969560;29;20095;-80
2021/05/26 11:22:03;;;;;;;0.93;0.30;;;11.80;99.90;;;;;;4952284;29;20035;-80
2021/05/26 11:24:33;;;;;;;2.15;0.30;;;11.50;99.90;;;;;;4952400;29;20032;-80
2021/05/26 11:27:00;;;;;;;2.60;0.40;;;11.20;99.90;;;;;;4951976;29;20054;-80
2021/05/26 11:29:26;;;;;;;1.20;0.40;;;11.00;99.90;;;;;;4969520;29;20023;-80
2021/05/26 11:32:09;;;;;;;1.23;0.50;;;10.80;99.90;;;;;;4969374;29;20066;-80
2021/05/26 11:34:35;;;;;;;2.95;0.40;;;10.80;99.90;;;;;;4952105;29;20114;-80
2021/05/26 11:37:02;;;;;;;2.42;0.43;;;10.80;99.90;;;;;;4967762;29;20053;-80
2021/05/26 11:39:34;;;;;;;2.20;0.45;;;11.10;99.90;;;;;;4951962;29;20507;-80
2021/05/26 11:42:18;;;;;;;1.55;0.30;;;11.10;99.90;;;;;;4968039;29;20042;-80
2021/05/26 11:45:00;;;;;;;1.75;0.40;;;11.20;99.90;;;;;;4967927;28;20035;-80
2021/05/26 11:47:36;;;;;;;1.73;0.30;;;11.30;99.90;;;;;;4967778;29;20047;-80
2021/05/26 11:50:19;;;;;;;2.67;0.40;;;11.80;99.90;;;;;;4967869;29;20055;-80
2021/05/26 11:53:13;;;;;;;3.55;1.00;;;12.80;99.90;;;;;;4969086;29;20098;-81
2021/05/26 11:55:42;;;;;;;1.02;0.38;;;13.70;99.90;;;;;;4963865;28;20066;-80
2021/05/26 11:58:07;;;;;;;2.53;0.55;;;13.50;99.90;;;;;;4967794;29;20035;-81
2021/05/26 12:00:38;;;;;;;1.85;0.40;;;13.70;99.90;;;;;;4967725;29;20131;-79
2021/05/26 12:03:09;;;;;;;1.90;0.57;;;13.50;99.90;;;;;;4969413;29;20479;-81
2021/05/26 12:05:38;;;;;;;1.55;0.60;;;14.10;99.90;;;;;;4967182;29;20058;-80
2021/05/26 12:08:24;;;;;;;3.42;0.60;;;13.50;99.90;;;;;;4951614;29;20031;-80
2021/05/26 12:10:55;;;;;;;4.90;0.75;;;13.60;99.90;;;;;;4951598;29;20031;-77
2021/05/26 12:13:29;;;;;;;2.95;0.55;;;13.00;99.90;;;;;;4968837;29;20071;-78
2021/05/26 12:16:00;;;;;;;4.50;0.60;;;12.40;99.90;;;;;;4968789;29;20062;-78
2021/05/26 12:18:26;;;;;;;2.92;0.50;;;12.20;99.90;;;;;;4967450;29;20031;-80
2021/05/26 12:20:53;;;;;;;3.15;0.68;;;12.00;99.90;;;;;;4968572;29;20123;-81
2021/05/26 12:23:41;;;;;;;2.72;0.75;;;11.60;99.90;;;;;;4968504;29;20058;-78
2021/05/26 12:26:35;;;;;;;3.17;0.70;;;11.40;99.90;;;;;;4967058;29;20045;-81
2021/05/26 12:29:09;;;;;;;2.88;0.60;;;11.20;99.90;;;;;;4967301;28;20035;-80
2021/05/26 12:31:39;;;;;;;5.60;0.60;;;11.10;99.90;;;;;;4967014;29;20098;-80
2021/05/26 12:34:13;;;;;;;;;;;11.30;99.90;;;;;;4967548;29;20126;-81
2021/05/26 12:36:52;;;;;;;3.83;0.57;;;11.40;99.90;;;;;;4967966;28;19978;-80
2021/05/26 12:39:18;;;;;;;1.13;0.40;;;11.30;99.90;;;;;;4967333;29;20457;-81
2021/05/26 12:41:47;;;;;;;2.60;0.40;;;11.20;99.90;;;;;;4950939;29;20118;-80
2021/05/26 12:44:13;;;;;;;1.67;0.52;;;11.40;99.90;;;;;;4966962;29;20035;-80
2021/05/26 12:46:41;;;;;;;3.42;0.60;;;11.90;99.90;;;;;;4966720;29;20053;-81
2021/05/26 12:49:27;;;;;;;2.22;0.50;;;11.90;99.90;;;;;;4966854;29;20087;-81
2021/05/26 12:51:53;;;;;;;4.65;0.60;;;12.00;99.90;;;;;;4966679;28;20429;-81
2021/05/26 12:54:19;;;;;;;1.67;0.80;;;12.30;99.90;;;;;;4966696;29;20068;-80
2021/05/26 12:56:45;;;;;;;5.95;1.08;;;12.70;99.90;;;;;;4966192;28;20031;-81
2021/05/26 12:59:11;;;;;;;3.97;1.00;;;12.80;99.90;;;;;;4950609;29;20504;-80
2021/05/26 13:01:44;;;;;;;2.78;0.80;;;12.90;99.90;;;;;;4966542;29;20454;-78
2021/05/26 13:04:18;;;;;;;2.67;0.68;;;12.80;99.90;;;;;;4963171;29;20079;-78
2021/05/26 13:06:43;;;;;;;2.90;0.80;;;12.80;99.90;;;;;;4948174;29;20044;-78
2021/05/26 13:09:14;;;;;;;2.70;1.10;;;12.80;99.90;;;;;;4963176;29;20039;-78